createdAt,value
2022-08-18T00:01:32.079Z,13.33
2022-08-18T00:04:03.648Z,14.33
2022-08-18T00:06:42.140Z,14.50
2022-08-18T00:09:12.508Z,11.00
2022-08-18T00:11:45.217Z,13.67
2022-08-18T00:14:22.869Z,13.67
2022-08-18T00:16:54.414Z,16.33
2022-08-18T00:19:46.136Z,12.67
2022-08-18T00:22:19.852Z,16.33
2022-08-18T00:24:55.554Z,18.33
2022-08-18T00:27:31.516Z,18.00
2022-08-18T00:30:07.377Z,15.00
2022-08-18T00:32:54.734Z,15.00
2022-08-18T00:35:36.698Z,14.00
2022-08-18T00:38:08.991Z,17.50
2022-08-18T00:40:56.368Z,18.00
2022-08-18T00:43:36.468Z,16.00
2022-08-18T00:46:18.204Z,16.00
2022-08-18T00:48:49.397Z,20.00
2022-08-18T00:51:43.482Z,15.00
2022-08-18T00:54:28.949Z,14.33
2022-08-18T00:57:06.917Z,17.33
2022-08-18T00:59:57.645Z,18.00
2022-08-18T01:02:37.574Z,21.50
2022-08-18T01:05:41.301Z,23.00
2022-08-18T01:08:14.983Z,21.00
2022-08-18T01:10:46.282Z,18.67
2022-08-18T01:13:15.101Z,18.00
2022-08-18T01:15:43.923Z,15.00
2022-08-18T01:18:34.000Z,21.00
2022-08-18T01:21:32.765Z,24.67
2022-08-18T01:24:07.795Z,23.00
2022-08-18T01:26:50.262Z,21.33
2022-08-18T01:29:20.271Z,25.00
2022-08-18T01:31:56.494Z,22.00
2022-08-18T01:34:28.607Z,21.00
2022-08-18T01:36:57.926Z,28.00
2022-08-18T01:41:21.974Z,23.00
2022-08-18T01:42:17.997Z,23.00
2022-08-18T01:44:51.399Z,24.33
2022-08-18T01:47:20.895Z,20.67
2022-08-18T01:49:49.611Z,25.00
2022-08-18T01:52:22.075Z,23.33
2022-08-18T01:54:54.149Z,21.00
2022-08-18T01:57:24.801Z,19.67
2022-08-18T01:59:54.480Z,23.00
2022-08-18T02:02:28.683Z,20.67
2022-08-18T02:05:12.781Z,23.00
2022-08-18T02:07:42.700Z,20.33
2022-08-18T02:10:16.612Z,23.00
2022-08-18T02:12:45.543Z,22.33
2022-08-18T02:15:14.491Z,23.67
2022-08-18T02:17:46.198Z,23.67
2022-08-18T02:20:18.961Z,27.00
2022-08-18T02:22:49.524Z,20.00
2022-08-18T02:25:19.945Z,19.67
2022-08-18T02:27:48.611Z,21.00
2022-08-18T02:30:19.736Z,26.00
2022-08-18T02:32:48.891Z,23.00
2022-08-18T02:35:18.890Z,22.00
2022-08-18T02:37:48.503Z,26.67
2022-08-18T02:40:19.280Z,28.33
2022-08-18T02:42:48.363Z,29.00
2022-08-18T02:45:17.124Z,21.67
2022-08-18T02:47:46.113Z,26.33
2022-08-18T02:50:16.944Z,27.67
2022-08-18T02:52:46.458Z,29.50
2022-08-18T02:55:16.212Z,35.33
2022-08-18T02:57:51.967Z,25.00
2022-08-18T03:00:21.028Z,30.33
2022-08-18T03:02:53.584Z,29.00
2022-08-18T03:05:22.222Z,31.67
2022-08-18T03:07:51.157Z,30.33
2022-08-18T03:10:32.611Z,30.33
2022-08-18T03:13:03.918Z,27.00
2022-08-18T03:15:32.850Z,28.67
2022-08-18T03:18:02.262Z,27.00
2022-08-18T03:20:31.586Z,29.67
2022-08-18T03:23:09.500Z,29.00
2022-08-18T03:25:49.769Z,35.33
2022-08-18T03:28:18.790Z,32.33
2022-08-18T03:30:47.533Z,27.33
2022-08-18T03:33:16.305Z,27.00
2022-08-18T03:35:44.932Z,29.67
2022-08-18T03:38:13.824Z,30.67
2022-08-18T03:40:43.395Z,31.00
2022-08-18T03:43:23.651Z,31.33
2022-08-18T03:46:07.401Z,32.00
2022-08-18T03:48:39.558Z,34.00
2022-08-18T03:51:15.378Z,31.67
2022-08-18T03:53:45.190Z,35.33
2022-08-18T03:56:28.233Z,32.33
2022-08-18T03:59:01.582Z,31.67
2022-08-18T04:01:42.239Z,34.33
2022-08-18T04:04:23.405Z,34.00
2022-08-18T04:07:05.885Z,34.00
2022-08-18T04:09:37.237Z,35.00
2022-08-18T04:12:15.654Z,35.25
2022-08-18T04:14:50.280Z,33.00
2022-08-18T04:17:25.329Z,37.00
2022-08-18T04:19:56.327Z,38.33
2022-08-18T04:22:26.764Z,39.00
2022-08-18T04:24:55.960Z,32.00
2022-08-18T04:27:29.016Z,33.00
2022-08-18T04:29:58.100Z,31.00
2022-08-18T04:32:29.723Z,28.00
2022-08-18T04:34:58.994Z,31.67
2022-08-18T04:37:33.231Z,32.33
2022-08-18T04:40:10.470Z,32.00
2022-08-18T04:42:43.443Z,27.67
2022-08-18T04:45:13.320Z,29.00
2022-08-18T04:47:42.006Z,30.67
2022-08-18T04:50:11.726Z,34.67
2022-08-18T04:52:58.825Z,33.33
2022-08-18T04:55:29.356Z,32.67
2022-08-18T04:57:59.625Z,30.00
2022-08-18T05:00:28.365Z,33.67
2022-08-18T05:02:58.146Z,30.33
2022-08-18T05:05:27.713Z,30.00
2022-08-18T05:07:58.193Z,30.00
2022-08-18T05:10:26.926Z,35.33
2022-08-18T05:12:56.823Z,36.50
2022-08-18T05:15:25.457Z,35.33
2022-08-18T05:17:54.247Z,34.67
2022-08-18T05:20:23.400Z,34.00
2022-08-18T05:22:52.830Z,34.00
2022-08-18T05:25:21.475Z,32.50
2022-08-18T05:27:50.216Z,33.67
2022-08-18T05:30:19.049Z,32.33
2022-08-18T05:32:50.452Z,29.67
2022-08-18T05:35:47.642Z,31.67
2022-08-18T05:38:53.994Z,27.00
2022-08-18T05:41:35.097Z,29.33
2022-08-18T05:44:05.388Z,29.33
2022-08-18T05:47:07.000Z,32.00
2022-08-18T05:49:37.252Z,28.00
2022-08-18T05:52:31.802Z,30.67
2022-08-18T05:55:31.788Z,26.75
2022-08-18T05:58:21.399Z,33.33
2022-08-18T06:01:02.434Z,31.00
2022-08-18T06:03:49.132Z,18.00
2022-08-18T06:06:31.069Z,26.00
2022-08-18T06:09:22.445Z,28.33
2022-08-18T06:11:53.433Z,32.33
2022-08-18T06:14:22.884Z,22.00
2022-08-18T06:17:26.502Z,29.00
2022-08-18T06:20:43.062Z,29.00
2022-08-18T06:23:49.443Z,25.67
2022-08-18T06:26:57.479Z,31.25
2022-08-18T06:30:08.076Z,26.67
2022-08-18T06:32:42.023Z,26.33
2022-08-18T06:35:29.410Z,30.33
2022-08-18T06:38:47.690Z,26.00
2022-08-18T06:41:37.896Z,28.33
2022-08-18T06:44:21.070Z,26.67
2022-08-18T06:47:11.378Z,26.75
2022-08-18T06:50:21.704Z,18.67
2022-08-18T06:53:02.365Z,18.14
2022-08-18T06:55:49.861Z,26.75
2022-08-18T06:58:30.686Z,18.86
2022-08-18T07:01:07.210Z,23.00
2022-08-18T07:03:35.728Z,16.00
2022-08-18T07:06:21.644Z,24.00
2022-08-18T07:08:57.291Z,23.29
2022-08-18T07:11:34.362Z,19.00
2022-08-18T07:14:23.519Z,21.43
2022-08-18T07:17:14.037Z,22.75
2022-08-18T07:19:45.289Z,23.86
2022-08-18T07:22:18.226Z,21.29
2022-08-18T07:24:56.142Z,24.00
2022-08-18T07:27:49.284Z,23.57
2022-08-18T07:30:20.459Z,19.71
2022-08-18T07:33:20.315Z,21.71
2022-08-18T07:36:00.570Z,22.00
2022-08-18T07:38:44.091Z,19.86
2022-08-18T07:41:27.879Z,24.50
2022-08-18T07:44:29.575Z,27.00
2022-08-18T07:47:07.217Z,25.33
2022-08-18T07:49:46.097Z,26.86
2022-08-18T07:52:59.128Z,24.14
2022-08-18T07:55:35.716Z,23.33
2022-08-18T07:58:45.511Z,25.57
2022-08-18T08:01:42.842Z,24.67
2022-08-18T08:04:41.595Z,26.00
2022-08-18T08:07:25.848Z,25.14
2022-08-18T08:10:56.886Z,23.14
2022-08-18T08:13:55.260Z,19.00
2022-08-18T08:17:11.426Z,26.00
2022-08-18T08:20:33.285Z,21.00
2022-08-18T08:23:35.000Z,21.00
2022-08-18T08:26:23.538Z,24.00
2022-08-18T08:29:55.495Z,23.29
2022-08-18T08:32:42.555Z,26.86
2022-08-18T08:35:49.933Z,24.00
2022-08-18T08:38:49.259Z,28.25
2022-08-18T08:41:40.004Z,25.50
2022-08-18T08:44:33.331Z,26.43
2022-08-18T08:47:33.299Z,23.43
2022-08-18T08:50:17.054Z,21.14
2022-08-18T08:52:59.124Z,24.71
2022-08-18T08:55:55.048Z,23.14
2022-08-18T08:58:49.026Z,25.75
2022-08-18T09:01:56.305Z,21.29
2022-08-18T09:05:29.410Z,20.71
2022-08-18T09:08:43.923Z,19.67
2022-08-18T09:11:40.049Z,22.00
2022-08-18T09:14:44.838Z,18.00
2022-08-18T09:17:53.408Z,22.57
2022-08-18T09:20:51.631Z,25.00
2022-08-18T09:23:39.094Z,22.00
2022-08-18T09:26:41.085Z,21.33
2022-08-18T09:29:25.683Z,18.00
2022-08-18T09:32:19.080Z,13.33
2022-08-18T09:35:08.323Z,21.86
2022-08-18T09:38:39.054Z,21.29
2022-08-18T09:41:49.008Z,18.33
2022-08-18T09:44:49.596Z,20.00
2022-08-18T09:47:27.680Z,17.67
2022-08-18T09:50:04.408Z,25.14
2022-08-18T09:52:37.495Z,18.67
2022-08-18T09:55:34.716Z,23.00
2022-08-18T09:58:26.523Z,15.67
2022-08-18T10:01:36.689Z,16.86
2022-08-18T10:04:53.758Z,21.00
2022-08-18T10:07:57.957Z,15.33
2022-08-18T10:14:58.315Z,20.67
2022-08-18T10:18:23.852Z,19.00
2022-08-18T10:21:10.317Z,19.33
2022-08-18T10:24:35.103Z,21.33
2022-08-18T10:27:49.041Z,18.33
2022-08-18T10:30:56.236Z,18.33
2022-08-18T10:34:00.761Z,16.67
2022-08-18T10:36:48.447Z,13.00
2022-08-18T10:39:51.016Z,17.33
2022-08-18T10:42:49.961Z,10.50
2022-08-18T10:45:32.141Z,17.67
2022-08-18T10:48:33.079Z,14.71
2022-08-18T10:52:12.679Z,15.43
2022-08-18T10:55:14.517Z,16.33
2022-08-18T10:58:28.418Z,13.67
2022-08-18T11:01:40.691Z,16.67
2022-08-18T11:04:42.194Z,16.00
2022-08-18T11:07:26.428Z,17.33
2022-08-18T11:13:15.043Z,14.50
2022-08-18T11:16:13.579Z,14.00
2022-08-18T11:18:49.088Z,14.00
2022-08-18T11:21:42.133Z,10.00
2022-08-18T11:24:24.954Z,14.00
2022-08-18T11:27:19.059Z,13.67
2022-08-18T11:29:52.801Z,16.00
2022-08-18T11:32:42.577Z,14.00
2022-08-18T11:35:35.752Z,14.00
2022-08-18T11:38:13.743Z,13.33
2022-08-18T11:41:19.745Z,10.67
2022-08-18T11:46:40.921Z,17.00
2022-08-18T11:49:58.979Z,15.00
2022-08-18T11:55:34.626Z,10.33
2022-08-18T11:58:05.575Z,14.00
2022-08-18T12:00:45.867Z,9.00
2022-08-18T12:03:45.330Z,16.00
2022-08-18T12:06:27.161Z,10.67
2022-08-18T12:10:14.777Z,13.00
2022-08-18T12:12:31.998Z,12.33
2022-08-18T12:15:29.574Z,13.33
2022-08-18T12:21:02.867Z,11.00
2022-08-18T12:23:44.469Z,11.00
2022-08-18T12:26:26.895Z,9.67
2022-08-18T12:29:09.053Z,9.00
2022-08-18T12:31:42.358Z,8.67
2022-08-18T12:34:26.387Z,10.00
2022-08-18T12:37:01.350Z,8.33
2022-08-18T12:39:32.461Z,0.00
2022-08-18T12:42:02.397Z,9.67
2022-08-18T12:44:30.828Z,10.50
2022-08-18T12:46:59.853Z,11.67
2022-08-18T12:52:17.956Z,11.67
2022-08-18T12:54:55.394Z,11.33
2022-08-18T12:57:51.719Z,9.67
2022-08-18T13:00:18.701Z,12.00
2022-08-18T13:02:47.739Z,11.00
2022-08-18T13:05:16.397Z,9.33
2022-08-18T13:07:44.889Z,11.00
2022-08-18T13:10:35.764Z,11.00
2022-08-18T13:13:05.955Z,13.00
2022-08-18T13:15:37.184Z,10.00
2022-08-18T13:18:06.439Z,11.00
2022-08-18T13:20:45.106Z,14.00
2022-08-18T13:23:13.865Z,13.00
2022-08-18T13:25:47.497Z,8.00
2022-08-18T13:28:15.989Z,13.00
2022-08-18T13:30:48.930Z,14.00
2022-08-18T13:33:35.121Z,13.00
2022-08-18T13:36:07.939Z,13.00
2022-08-18T13:38:36.655Z,7.00
2022-08-18T13:41:06.466Z,11.33
2022-08-18T13:43:44.817Z,14.00
2022-08-18T13:46:24.080Z,10.33
2022-08-18T13:49:03.389Z,12.00
2022-08-18T13:51:32.182Z,8.33
2022-08-18T13:54:29.413Z,11.67
2022-08-18T13:56:51.484Z,12.00
2022-08-18T13:59:22.706Z,5.67
2022-08-18T14:01:53.390Z,12.00
2022-08-18T14:04:23.214Z,14.33
2022-08-18T14:07:00.467Z,11.00
2022-08-18T14:09:37.342Z,10.33
2022-08-18T14:12:33.508Z,9.00
2022-08-18T14:15:02.289Z,10.00
2022-08-18T14:17:31.398Z,15.33
2022-08-18T14:20:27.581Z,17.57
2022-08-18T14:23:22.047Z,27.14
2022-08-18T14:26:15.147Z,30.29
2022-08-18T14:28:48.606Z,26.43
2022-08-18T14:31:24.069Z,19.14
2022-08-18T14:33:54.193Z,27.67
2022-08-18T14:36:29.449Z,33.00
2022-08-18T14:39:04.248Z,32.75
2022-08-18T14:41:37.097Z,27.25
2022-08-18T14:44:23.622Z,29.33
2022-08-18T14:46:57.694Z,28.63
2022-08-18T14:49:31.502Z,21.57
2022-08-18T14:52:05.166Z,24.43
2022-08-18T14:54:40.213Z,11.50
2022-08-18T14:57:15.290Z,16.00
2022-08-18T14:59:44.621Z,12.00
2022-08-18T15:02:15.937Z,19.71
2022-08-18T15:04:56.030Z,25.43
2022-08-18T15:07:29.259Z,22.14
2022-08-18T15:10:15.116Z,20.43
2022-08-18T15:12:46.779Z,23.67
2022-08-18T15:15:22.509Z,27.29
2022-08-18T15:17:54.526Z,26.14
2022-08-18T15:20:29.585Z,24.71
2022-08-18T15:23:28.070Z,23.71
2022-08-18T15:25:59.751Z,27.29
2022-08-18T15:28:32.244Z,26.71
2022-08-18T15:31:17.444Z,18.00
2022-08-18T15:33:51.086Z,23.00
2022-08-18T15:36:29.251Z,20.33
2022-08-18T15:39:04.620Z,19.57
2022-08-18T15:41:46.712Z,22.29
2022-08-18T15:44:22.894Z,23.29
2022-08-18T15:46:54.191Z,24.43
2022-08-18T15:49:25.573Z,23.00
2022-08-18T15:51:59.167Z,20.71
2022-08-18T15:54:32.080Z,20.50
2022-08-18T15:57:03.482Z,22.71
2022-08-18T15:59:39.913Z,78.67
2022-08-18T16:02:17.967Z,23.57
2022-08-18T16:04:50.791Z,24.00
2022-08-18T16:07:40.069Z,27.71
2022-08-18T16:10:15.911Z,25.14
2022-08-18T16:12:48.914Z,21.14
2022-08-18T16:15:25.062Z,24.57
2022-08-18T16:17:56.694Z,25.33
2022-08-18T16:20:29.631Z,21.86
2022-08-18T16:23:01.737Z,26.57
2022-08-18T16:25:33.775Z,25.86
2022-08-18T16:28:03.600Z,24.25
2022-08-18T16:30:35.728Z,27.00
2022-08-18T16:33:07.540Z,23.75
2022-08-18T16:35:39.315Z,22.14
2022-08-18T16:38:13.037Z,22.00
2022-08-18T16:40:44.348Z,20.14
2022-08-18T16:43:15.631Z,23.71
2022-08-18T16:45:47.302Z,18.71
2022-08-18T16:48:17.092Z,22.00
2022-08-18T16:50:46.294Z,21.00
2022-08-18T16:53:14.770Z,20.67
2022-08-18T16:55:46.142Z,21.14
2022-08-18T16:58:33.313Z,21.00
2022-08-18T17:01:22.814Z,18.67
2022-08-18T17:04:13.822Z,18.67
2022-08-18T17:06:52.379Z,19.43
2022-08-18T17:09:22.967Z,19.33
2022-08-18T17:11:52.600Z,22.67
2022-08-18T17:14:26.065Z,21.00
2022-08-18T17:16:56.281Z,23.75
2022-08-18T17:19:33.718Z,21.14
2022-08-18T17:22:05.408Z,21.67
2022-08-18T17:24:42.588Z,22.00
2022-08-18T17:27:27.687Z,25.67
2022-08-18T17:30:09.357Z,22.33
2022-08-18T17:33:06.125Z,26.00
2022-08-18T17:35:44.404Z,24.00
2022-08-18T17:38:30.026Z,27.75
2022-08-18T17:41:01.123Z,22.00
2022-08-18T17:46:39.468Z,23.67
2022-08-18T17:50:26.260Z,24.00
2022-08-18T17:53:05.541Z,20.67
2022-08-18T17:55:50.253Z,23.57
2022-08-18T17:58:56.572Z,22.00
2022-08-18T18:01:27.541Z,16.67
2022-08-18T18:03:56.190Z,22.67
2022-08-18T18:06:42.124Z,20.75
2022-08-18T18:09:21.119Z,25.00
2022-08-18T18:11:49.572Z,27.67
2022-08-18T18:14:39.620Z,22.00
2022-08-18T18:17:18.228Z,23.67
2022-08-18T18:20:15.592Z,15.67
2022-08-18T18:22:46.156Z,24.00
2022-08-18T18:25:34.792Z,22.00
2022-08-18T18:28:06.230Z,18.29
2022-08-18T18:30:37.096Z,20.67
2022-08-18T18:33:15.915Z,18.67
2022-08-18T18:35:54.102Z,21.33
2022-08-18T18:38:43.346Z,20.00
2022-08-18T18:41:14.803Z,18.00
2022-08-18T18:43:49.173Z,20.67
2022-08-18T18:46:32.287Z,19.67
2022-08-18T18:49:28.626Z,17.00
2022-08-18T18:52:49.608Z,25.33
2022-08-18T18:55:28.371Z,19.00
2022-08-18T18:58:33.001Z,17.33
2022-08-18T19:01:11.131Z,19.00
2022-08-18T19:03:57.685Z,18.00
2022-08-18T19:06:54.057Z,20.00
2022-08-18T19:09:50.312Z,22.50
2022-08-18T19:12:43.358Z,21.33
2022-08-18T19:15:15.515Z,24.33
2022-08-18T19:18:16.953Z,21.67
2022-08-18T19:22:01.822Z,20.33
2022-08-18T19:24:09.910Z,20.67
2022-08-18T19:26:56.562Z,18.71
2022-08-18T19:29:35.740Z,19.00
2022-08-18T19:32:19.621Z,18.33
2022-08-18T19:34:51.319Z,19.67
2022-08-18T19:38:09.756Z,20.00
2022-08-18T19:41:03.556Z,21.33
2022-08-18T19:43:57.579Z,21.33
2022-08-18T19:46:44.857Z,23.33
2022-08-18T19:49:49.458Z,18.00
2022-08-18T19:52:45.496Z,23.00
2022-08-18T19:56:10.397Z,20.33
2022-08-18T19:59:21.651Z,21.67
2022-08-18T20:02:15.839Z,20.67
2022-08-18T20:05:34.131Z,22.00
2022-08-18T20:08:18.503Z,21.00
2022-08-18T20:10:52.657Z,23.00
2022-08-18T20:13:43.333Z,19.33
2022-08-18T20:16:43.291Z,18.67
2022-08-18T20:20:13.096Z,19.00
2022-08-18T20:22:47.296Z,23.00
2022-08-18T20:25:24.982Z,25.14
2022-08-18T20:28:10.586Z,21.67
2022-08-18T20:31:14.316Z,21.00
2022-08-18T20:34:14.113Z,22.00
2022-08-18T20:36:47.121Z,22.00
2022-08-18T20:39:47.559Z,22.00
2022-08-18T20:42:22.966Z,22.50
2022-08-18T20:45:27.032Z,24.00
2022-08-18T20:49:06.313Z,23.00
2022-08-18T20:51:52.410Z,21.00
2022-08-18T20:55:17.477Z,21.67
2022-08-18T20:57:46.593Z,21.00
2022-08-18T21:00:27.361Z,22.33
2022-08-18T21:03:00.546Z,23.00
2022-08-18T21:05:39.586Z,21.67
2022-08-18T21:08:27.610Z,19.67
2022-08-18T21:11:00.369Z,22.00
2022-08-18T21:13:41.261Z,21.33
2022-08-18T21:16:38.584Z,22.33
2022-08-18T21:19:30.211Z,23.33
2022-08-18T21:22:04.131Z,21.00
2022-08-18T21:24:36.780Z,22.33
2022-08-18T21:27:39.174Z,22.00
2022-08-18T21:30:22.207Z,18.33
2022-08-18T21:32:51.401Z,9.00
2022-08-18T21:35:38.250Z,21.00
2022-08-18T21:38:12.592Z,22.67
2022-08-18T21:40:48.417Z,25.00
2022-08-18T21:43:49.181Z,21.33
2022-08-18T21:46:29.518Z,22.00
2022-08-18T21:49:02.862Z,23.00
2022-08-18T21:51:49.808Z,24.67
2022-08-18T21:54:26.113Z,22.33
2022-08-18T21:57:25.619Z,24.33
2022-08-18T22:00:35.362Z,19.00
2022-08-18T22:03:25.857Z,26.33
2022-08-18T22:06:21.201Z,25.33
2022-08-18T22:09:28.829Z,29.00
2022-08-18T22:12:51.882Z,28.33
2022-08-18T22:15:29.266Z,23.33
2022-08-18T22:18:18.677Z,29.67
2022-08-18T22:21:02.282Z,24.33
2022-08-18T22:24:06.178Z,26.25
2022-08-18T22:26:39.642Z,21.67
2022-08-18T22:29:46.588Z,24.33
2022-08-18T22:32:16.931Z,24.50
2022-08-18T22:34:45.619Z,23.00
2022-08-18T22:37:24.294Z,25.00
2022-08-18T22:40:06.481Z,24.00
2022-08-18T22:42:35.591Z,23.00
2022-08-18T22:45:13.738Z,22.00
2022-08-18T22:47:45.015Z,25.33
2022-08-18T22:50:14.745Z,24.33
2022-08-18T22:52:48.491Z,24.25
2022-08-18T22:55:23.764Z,27.33
2022-08-18T22:57:56.249Z,27.00
2022-08-18T23:00:27.183Z,25.00
2022-08-18T23:02:57.898Z,25.67
2022-08-18T23:05:27.105Z,19.33
2022-08-18T23:07:55.969Z,24.33
2022-08-18T23:10:24.686Z,26.33
2022-08-18T23:12:54.428Z,24.67
2022-08-18T23:15:42.831Z,25.25
2022-08-18T23:18:11.735Z,23.67
2022-08-18T23:20:41.001Z,25.33
2022-08-18T23:23:09.762Z,20.67
2022-08-18T23:25:39.669Z,26.33
2022-08-18T23:28:10.604Z,24.33
2022-08-18T23:30:40.970Z,23.00
2022-08-18T23:33:10.613Z,25.67
2022-08-18T23:35:40.418Z,20.67
2022-08-18T23:38:10.577Z,23.67
2022-08-18T23:40:48.683Z,24.75
2022-08-18T23:43:20.305Z,26.00
2022-08-18T23:45:51.467Z,27.00
2022-08-18T23:48:20.813Z,24.00
2022-08-18T23:50:51.059Z,27.25
2022-08-18T23:53:20.546Z,26.00
2022-08-18T23:55:50.011Z,23.67
2022-08-18T23:58:19.413Z,24.00
